createdAt,value
2023-03-11T00:00:01.826Z,0.80
2023-03-11T00:03:04.554Z,1.40
2023-03-11T00:06:06.387Z,0.70
2023-03-11T00:09:07.724Z,0.80
2023-03-11T00:12:09.073Z,0.93
2023-03-11T00:15:10.676Z,0.65
2023-03-11T00:18:11.998Z,0.63
2023-03-11T00:21:17.330Z,0.77
2023-03-11T00:24:18.676Z,0.90
2023-03-11T00:27:20.000Z,0.80
2023-03-11T00:30:22.096Z,0.80
2023-03-11T00:33:23.684Z,0.95
2023-03-11T00:36:31.488Z,1.13
2023-03-11T00:39:33.527Z,0.77
2023-03-11T00:42:34.832Z,1.02
2023-03-11T00:45:36.229Z,1.20
2023-03-11T00:48:37.525Z,1.00
2023-03-11T00:51:38.815Z,0.73
2023-03-11T00:54:40.132Z,1.52
2023-03-11T00:57:41.673Z,1.10
2023-03-11T01:00:42.968Z,0.85
2023-03-11T01:03:44.541Z,1.30
2023-03-11T01:06:46.053Z,1.95
2023-03-11T01:09:47.387Z,0.77
2023-03-11T01:12:48.782Z,1.00
2023-03-11T01:15:50.109Z,0.90
2023-03-11T01:18:51.398Z,0.70
2023-03-11T01:21:52.757Z,0.77
2023-03-11T01:24:54.005Z,1.45
2023-03-11T01:27:55.278Z,0.80
2023-03-11T01:30:56.558Z,1.77
2023-03-11T01:33:57.904Z,1.65
2023-03-11T01:36:59.228Z,0.80
2023-03-11T01:40:00.650Z,1.80
2023-03-11T01:43:03.173Z,0.88
2023-03-11T01:46:11.087Z,1.27
2023-03-11T01:49:12.818Z,1.63
2023-03-11T01:52:14.299Z,1.08
2023-03-11T01:55:16.823Z,0.80
2023-03-11T01:58:21.034Z,1.35
2023-03-11T02:01:22.603Z,0.75
2023-03-11T02:04:23.921Z,1.00
2023-03-11T02:07:25.268Z,1.58
2023-03-11T02:10:26.663Z,0.82
2023-03-11T02:13:28.713Z,1.73
2023-03-11T02:16:30.234Z,0.88
2023-03-11T02:19:40.833Z,0.98
2023-03-11T02:22:42.762Z,0.70
2023-03-11T02:25:56.024Z,1.80
2023-03-11T02:28:57.677Z,0.88
2023-03-11T02:31:59.737Z,0.93
2023-03-11T02:35:00.998Z,1.48
2023-03-11T02:38:02.306Z,0.80
2023-03-11T02:41:03.775Z,0.85
2023-03-11T02:44:06.698Z,0.90
2023-03-11T02:47:08.452Z,0.73
2023-03-11T02:50:11.435Z,0.63
2023-03-11T02:53:12.762Z,0.93
2023-03-11T02:56:14.048Z,0.82
2023-03-11T02:59:15.375Z,1.25
2023-03-11T03:02:17.020Z,0.80
2023-03-11T03:05:20.587Z,1.27
2023-03-11T03:08:21.873Z,1.02
2023-03-11T03:11:23.160Z,1.60
2023-03-11T03:14:24.442Z,0.80
2023-03-11T03:17:25.728Z,1.00
2023-03-11T03:20:27.092Z,1.77
2023-03-11T03:23:28.412Z,1.58
2023-03-11T03:26:29.697Z,1.05
2023-03-11T03:29:31.058Z,1.83
2023-03-11T03:32:32.517Z,1.70
2023-03-11T03:35:34.077Z,1.00
2023-03-11T03:38:35.444Z,1.60
2023-03-11T03:41:36.709Z,1.63
2023-03-11T03:44:38.057Z,1.70
2023-03-11T03:47:39.394Z,1.30
2023-03-11T03:50:40.710Z,1.02
2023-03-11T03:53:42.410Z,0.85
2023-03-11T03:56:43.734Z,1.52
2023-03-11T03:59:45.176Z,1.52
2023-03-11T04:02:46.484Z,2.28
2023-03-11T04:05:47.752Z,1.42
2023-03-11T04:08:50.600Z,1.55
2023-03-11T04:11:51.966Z,0.80
2023-03-11T04:14:53.207Z,1.23
2023-03-11T04:17:54.521Z,0.90
2023-03-11T04:20:55.775Z,1.88
2023-03-11T04:23:57.205Z,1.30
2023-03-11T04:26:58.456Z,1.52
2023-03-11T04:29:59.976Z,1.20
2023-03-11T04:33:01.381Z,2.22
2023-03-11T04:36:06.818Z,2.05
2023-03-11T04:39:08.083Z,1.42
2023-03-11T04:42:09.351Z,1.52
2023-03-11T04:45:11.236Z,1.50
2023-03-11T04:48:12.508Z,1.05
2023-03-11T04:51:13.868Z,1.85
2023-03-11T04:54:15.130Z,1.63
2023-03-11T04:57:16.378Z,1.15
2023-03-11T05:00:22.881Z,1.13
2023-03-11T05:03:24.261Z,1.85
2023-03-11T05:06:25.632Z,1.63
2023-03-11T05:09:27.073Z,1.67
2023-03-11T05:12:28.370Z,1.40
2023-03-11T05:15:31.274Z,1.10
2023-03-11T05:18:32.619Z,2.08
2023-03-11T05:21:33.928Z,1.63
2023-03-11T05:24:35.288Z,2.97
2023-03-11T05:27:36.574Z,1.60
2023-03-11T05:30:37.875Z,0.80
2023-03-11T05:33:39.268Z,1.63
2023-03-11T05:36:40.586Z,0.80
2023-03-11T05:39:42.084Z,1.63
2023-03-11T05:42:43.459Z,0.82
2023-03-11T05:45:44.743Z,2.72
2023-03-11T05:48:46.338Z,2.40
2023-03-11T05:51:48.259Z,1.90
2023-03-11T05:54:51.269Z,1.50
2023-03-11T05:57:52.668Z,1.08
2023-03-11T06:00:54.072Z,1.00
2023-03-11T06:03:55.458Z,1.02
2023-03-11T06:06:56.882Z,1.08
2023-03-11T06:09:58.215Z,0.93
2023-03-11T06:12:59.511Z,0.98
2023-03-11T06:16:00.890Z,1.73
2023-03-11T06:19:02.487Z,2.88
2023-03-11T06:22:03.731Z,1.00
2023-03-11T06:25:05.316Z,1.70
2023-03-11T06:28:06.616Z,2.00
2023-03-11T06:31:11.945Z,1.55
2023-03-11T06:34:13.211Z,1.85
2023-03-11T06:37:14.991Z,1.67
2023-03-11T06:40:16.404Z,1.10
2023-03-11T06:43:18.028Z,1.67
2023-03-11T06:46:20.849Z,1.20
2023-03-11T06:49:22.147Z,1.40
2023-03-11T06:52:23.427Z,1.63
2023-03-11T06:55:24.714Z,2.00
2023-03-11T06:58:26.365Z,1.80
2023-03-11T07:01:28.659Z,1.98
2023-03-11T07:04:30.779Z,1.05
2023-03-11T07:07:32.098Z,0.95
2023-03-11T07:10:33.443Z,0.95
2023-03-11T07:13:35.638Z,1.40
2023-03-11T07:16:38.400Z,1.25
2023-03-11T07:19:40.978Z,1.23
2023-03-11T07:22:42.291Z,1.95
2023-03-11T07:25:46.997Z,2.03
2023-03-11T07:28:49.511Z,1.30
2023-03-11T07:31:50.811Z,1.77
2023-03-11T07:34:52.269Z,1.27
2023-03-11T07:37:53.584Z,2.10
2023-03-11T07:40:58.706Z,1.33
2023-03-11T07:47:07.388Z,2.05
2023-03-11T07:50:09.048Z,0.93
2023-03-11T07:53:10.389Z,1.02
2023-03-11T07:56:12.610Z,2.13
2023-03-11T07:59:13.977Z,1.77
2023-03-11T08:02:15.345Z,1.13
2023-03-11T08:05:18.464Z,1.67
2023-03-11T08:08:19.819Z,0.98
2023-03-11T08:11:22.287Z,1.02
2023-03-11T08:14:23.540Z,1.05
2023-03-11T08:17:24.790Z,0.75
2023-03-11T08:20:26.072Z,1.02
2023-03-11T08:23:27.301Z,1.02
2023-03-11T08:26:28.833Z,2.22
2023-03-11T08:29:30.197Z,1.17
2023-03-11T08:32:31.636Z,1.00
2023-03-11T08:35:33.066Z,1.27
2023-03-11T08:38:34.426Z,1.48
2023-03-11T08:41:35.807Z,0.90
2023-03-11T08:44:37.059Z,1.13
2023-03-11T08:47:39.055Z,1.23
2023-03-11T08:50:52.987Z,1.98
2023-03-11T08:53:55.597Z,1.33
2023-03-11T08:56:57.007Z,0.95
2023-03-11T08:59:58.369Z,1.05
2023-03-11T09:02:59.788Z,0.85
2023-03-11T09:06:02.080Z,0.80
2023-03-11T09:09:03.822Z,1.88
2023-03-11T09:12:05.283Z,2.08
2023-03-11T09:15:07.138Z,1.17
2023-03-11T09:18:11.391Z,0.85
2023-03-11T09:21:12.989Z,0.82
2023-03-11T09:24:14.289Z,0.73
2023-03-11T09:27:15.686Z,1.05
2023-03-11T09:30:17.238Z,0.90
2023-03-11T09:33:18.629Z,1.10
2023-03-11T09:36:20.653Z,1.75
2023-03-11T09:39:22.036Z,1.30
2023-03-11T09:42:32.960Z,0.98
2023-03-11T09:45:36.188Z,1.20
2023-03-11T09:48:40.310Z,0.80
2023-03-11T09:51:51.278Z,1.38
2023-03-11T09:54:53.807Z,1.08
2023-03-11T09:57:56.815Z,0.95
2023-03-11T10:00:58.144Z,1.02
2023-03-11T10:04:08.467Z,0.93
2023-03-11T10:07:12.207Z,1.10
2023-03-11T10:10:14.284Z,0.80
2023-03-11T10:13:26.159Z,0.80
2023-03-11T10:16:42.872Z,0.80
2023-03-11T10:20:02.327Z,1.52
2023-03-11T10:23:19.271Z,0.93
2023-03-11T10:26:23.563Z,1.02
2023-03-11T10:29:30.261Z,1.17
2023-03-11T10:32:50.554Z,0.80
2023-03-11T10:35:54.226Z,1.05
2023-03-11T10:38:55.729Z,0.73
2023-03-11T10:42:04.348Z,0.90
2023-03-11T10:45:12.182Z,0.80
2023-03-11T10:48:14.662Z,0.70
2023-03-11T10:51:22.639Z,0.90
2023-03-11T10:54:23.986Z,1.15
2023-03-11T10:57:26.700Z,0.80
2023-03-11T11:00:30.186Z,0.70
2023-03-11T11:03:32.674Z,0.65
2023-03-11T11:06:35.189Z,0.80
2023-03-11T11:09:36.669Z,0.60
2023-03-11T11:12:50.888Z,0.82
2023-03-11T11:15:56.532Z,0.77
2023-03-11T11:19:01.668Z,1.08
2023-03-11T11:22:04.674Z,0.80
2023-03-11T11:25:24.042Z,0.88
2023-03-11T11:28:25.331Z,0.88
2023-03-11T11:31:26.667Z,0.90
2023-03-11T11:34:32.306Z,0.88
2023-03-11T11:37:35.033Z,0.85
2023-03-11T11:40:36.402Z,1.02
2023-03-11T11:43:54.625Z,1.48
2023-03-11T11:46:58.045Z,0.80
2023-03-11T11:50:01.762Z,1.10
2023-03-11T11:53:12.235Z,1.00
2023-03-11T11:56:13.487Z,0.80
2023-03-11T11:59:16.331Z,0.80
2023-03-11T12:02:29.731Z,1.20
2023-03-11T12:05:32.753Z,0.95
2023-03-11T12:08:40.295Z,1.10
2023-03-11T12:11:49.896Z,1.10
2023-03-11T12:14:56.373Z,1.15
2023-03-11T12:18:00.683Z,1.02
2023-03-11T12:21:08.134Z,1.23
2023-03-11T12:24:28.112Z,0.88
2023-03-11T12:27:47.558Z,1.30
2023-03-11T12:30:50.783Z,1.35
2023-03-11T12:34:03.195Z,1.23
2023-03-11T12:37:13.398Z,1.85
2023-03-11T12:40:33.425Z,0.90
2023-03-11T12:43:54.641Z,1.08
2023-03-11T12:46:59.133Z,1.52
2023-03-11T12:53:02.020Z,1.77
2023-03-11T12:56:13.586Z,1.00
2023-03-11T12:59:21.066Z,1.00
2023-03-11T13:02:40.986Z,1.10
2023-03-11T13:05:57.752Z,1.17
2023-03-11T13:09:00.583Z,0.80
2023-03-11T13:12:02.337Z,0.70
2023-03-11T13:15:19.763Z,1.10
2023-03-11T13:18:25.544Z,1.30
2023-03-11T13:21:26.835Z,1.33
2023-03-11T13:24:29.555Z,1.08
2023-03-11T13:27:38.922Z,1.88
2023-03-11T13:30:43.575Z,1.20
2023-03-11T13:34:03.424Z,0.90
2023-03-11T13:37:08.036Z,1.38
2023-03-11T13:43:25.606Z,1.05
2023-03-11T13:46:30.485Z,0.75
2023-03-11T13:49:38.318Z,0.95
2023-03-11T13:52:44.606Z,0.82
2023-03-11T13:55:46.989Z,0.88
2023-03-11T13:58:48.290Z,0.82
2023-03-11T14:01:50.574Z,1.17
2023-03-11T14:04:54.230Z,1.35
2023-03-11T14:07:55.488Z,0.90
2023-03-11T14:11:00.860Z,1.30
2023-03-11T14:14:02.292Z,1.33
2023-03-11T14:17:04.085Z,1.30
2023-03-11T14:20:06.897Z,1.38
2023-03-11T14:23:14.838Z,1.40
2023-03-11T14:26:18.968Z,0.77
2023-03-11T14:29:23.178Z,1.02
2023-03-11T14:32:29.312Z,1.05
2023-03-11T14:35:31.553Z,0.90
2023-03-11T14:38:32.919Z,1.20
2023-03-11T14:41:34.238Z,1.02
2023-03-11T14:44:37.659Z,1.20
2023-03-11T14:47:40.397Z,1.15
2023-03-11T14:50:43.551Z,1.42
2023-03-11T14:53:46.725Z,1.50
2023-03-11T14:56:51.159Z,1.30
2023-03-11T14:59:53.100Z,1.10
2023-03-11T15:03:03.643Z,1.30
2023-03-11T15:06:05.117Z,1.30
2023-03-11T15:09:07.900Z,2.22
2023-03-11T15:12:29.151Z,1.70
2023-03-11T15:15:30.449Z,1.02
2023-03-11T15:18:33.282Z,1.48
2023-03-11T15:21:34.594Z,1.20
2023-03-11T15:24:35.947Z,1.08
2023-03-11T15:27:38.744Z,1.10
2023-03-11T15:30:40.259Z,1.00
2023-03-11T15:33:41.566Z,1.30
2023-03-11T15:36:48.567Z,1.25
2023-03-11T15:39:52.120Z,1.40
2023-03-11T15:43:16.835Z,1.25
2023-03-11T15:46:18.262Z,1.08
2023-03-11T15:49:19.711Z,1.20
2023-03-11T15:52:21.032Z,1.00
2023-03-11T15:55:23.378Z,1.58
2023-03-11T15:58:24.758Z,1.20
2023-03-11T16:01:28.506Z,1.02
2023-03-11T16:04:29.908Z,0.90
2023-03-11T16:07:39.593Z,1.17
2023-03-11T16:10:42.421Z,1.50
2023-03-11T16:13:43.811Z,1.20
2023-03-11T16:16:45.485Z,1.48
2023-03-11T16:19:49.543Z,1.40
2023-03-11T16:22:52.576Z,1.10
2023-03-11T16:25:57.122Z,1.92
2023-03-11T16:29:09.119Z,1.95
2023-03-11T16:32:19.531Z,0.98
2023-03-11T16:35:21.163Z,1.20
2023-03-11T16:38:23.270Z,1.45
2023-03-11T16:41:28.109Z,2.22
2023-03-11T16:48:05.607Z,2.72
2023-03-11T16:51:06.887Z,1.30
2023-03-11T16:54:08.194Z,1.38
2023-03-11T16:57:09.480Z,1.50
2023-03-11T17:00:11.389Z,1.67
2023-03-11T17:03:13.706Z,2.50
2023-03-11T17:06:15.739Z,1.42
2023-03-11T17:09:16.988Z,1.58
2023-03-11T17:12:19.160Z,1.38
2023-03-11T17:15:20.741Z,2.00
2023-03-11T17:18:22.031Z,1.42
2023-03-11T17:21:23.379Z,2.35
2023-03-11T17:24:24.671Z,2.53
2023-03-11T17:27:31.947Z,3.13
2023-03-11T17:30:37.242Z,1.92
2023-03-11T17:33:38.682Z,2.78
2023-03-11T17:36:40.179Z,3.08
2023-03-11T17:39:41.476Z,1.80
2023-03-11T17:42:42.889Z,1.65
2023-03-11T17:45:44.116Z,2.08
2023-03-11T17:48:46.543Z,2.47
2023-03-11T17:51:47.974Z,2.53
2023-03-11T17:54:49.332Z,2.63
2023-03-11T17:57:52.231Z,2.08
2023-03-11T18:00:53.577Z,1.92
2023-03-11T18:03:55.253Z,2.67
2023-03-11T18:06:56.753Z,3.15
2023-03-11T18:09:58.047Z,3.50
2023-03-11T18:12:59.304Z,2.72
2023-03-11T18:16:01.893Z,1.98
2023-03-11T18:19:03.165Z,2.00
2023-03-11T18:22:04.517Z,2.00
2023-03-11T18:25:09.695Z,2.45
2023-03-11T18:31:16.804Z,1.50
2023-03-11T18:34:18.143Z,2.40
2023-03-11T18:37:19.529Z,2.22
2023-03-11T18:40:20.981Z,2.00
2023-03-11T18:43:22.295Z,1.90
2023-03-11T18:46:25.217Z,3.45
2023-03-11T18:49:29.011Z,2.15
2023-03-11T18:52:30.475Z,2.70
2023-03-11T18:55:34.204Z,4.22
2023-03-11T18:58:35.500Z,2.85
2023-03-11T19:01:36.907Z,4.05
2023-03-11T19:04:38.356Z,3.20
2023-03-11T19:07:39.862Z,3.00
2023-03-11T19:10:42.193Z,4.20
2023-03-11T19:13:47.911Z,4.10
2023-03-11T19:16:50.179Z,4.32
2023-03-11T19:19:51.457Z,3.70
2023-03-11T19:22:55.885Z,4.57
2023-03-11T19:26:03.006Z,4.03
2023-03-11T19:29:04.972Z,3.60
2023-03-11T19:32:06.368Z,4.10
2023-03-11T19:35:10.866Z,4.10
2023-03-11T19:38:12.194Z,3.30
2023-03-11T19:41:15.127Z,3.90
2023-03-11T19:44:16.506Z,3.15
2023-03-11T19:47:17.829Z,5.28
2023-03-11T19:50:19.683Z,3.00
2023-03-11T19:53:22.134Z,4.70
2023-03-11T19:56:23.464Z,3.65
2023-03-11T19:59:24.831Z,4.70
2023-03-11T20:02:26.273Z,3.67
2023-03-11T20:05:27.762Z,3.60
2023-03-11T20:08:30.258Z,4.45
2023-03-11T20:11:31.624Z,2.88
2023-03-11T20:14:32.936Z,3.13
2023-03-11T20:17:34.331Z,1.98
2023-03-11T20:20:37.573Z,2.20
2023-03-11T20:23:39.494Z,2.22
2023-03-11T20:26:40.973Z,1.88
2023-03-11T20:29:42.341Z,3.20
2023-03-11T20:32:43.646Z,1.92
2023-03-11T20:35:44.986Z,2.13
2023-03-11T20:38:49.846Z,2.25
2023-03-11T20:41:51.130Z,2.30
2023-03-11T20:44:53.106Z,2.65
2023-03-11T20:47:55.764Z,2.50
2023-03-11T20:51:01.277Z,3.72
2023-03-11T20:54:02.761Z,2.78
2023-03-11T20:57:04.055Z,3.10
2023-03-11T21:00:09.394Z,4.30
2023-03-11T21:03:10.819Z,3.67
2023-03-11T21:06:13.000Z,3.45
2023-03-11T21:09:14.690Z,3.83
2023-03-11T21:12:16.080Z,4.60
2023-03-11T21:15:17.507Z,4.18
2023-03-11T21:18:18.796Z,2.67
2023-03-11T21:21:20.253Z,3.25
2023-03-11T21:24:21.556Z,3.58
2023-03-11T21:27:26.662Z,4.45
2023-03-11T21:33:29.755Z,4.03
2023-03-11T21:36:31.187Z,3.53
2023-03-11T21:39:32.517Z,3.38
2023-03-11T21:42:33.884Z,3.17
2023-03-11T21:45:35.477Z,3.05
2023-03-11T21:48:36.835Z,2.70
2023-03-11T21:51:38.383Z,3.10
2023-03-11T21:54:39.784Z,2.53
2023-03-11T21:57:41.152Z,3.75
2023-03-11T22:00:42.773Z,1.42
2023-03-11T22:03:44.350Z,2.55
2023-03-11T22:06:45.799Z,2.47
2023-03-11T22:09:47.317Z,4.05
2023-03-11T22:12:48.781Z,4.45
2023-03-11T22:15:50.494Z,3.30
2023-03-11T22:18:52.134Z,2.20
2023-03-11T22:21:53.583Z,1.83
2023-03-11T22:24:54.951Z,2.25
2023-03-11T22:27:56.307Z,3.45
2023-03-11T22:30:57.752Z,2.45
2023-03-11T22:33:59.052Z,2.65
2023-03-11T22:37:00.328Z,2.85
2023-03-11T22:40:01.705Z,2.58
2023-03-11T22:43:03.007Z,1.42
2023-03-11T22:46:05.513Z,3.05
2023-03-11T22:49:06.807Z,2.90
2023-03-11T22:52:08.255Z,1.95
2023-03-11T22:55:09.643Z,3.33
2023-03-11T22:58:11.545Z,2.83
2023-03-11T23:01:13.072Z,1.88
2023-03-11T23:04:14.567Z,3.65
2023-03-11T23:07:16.035Z,2.67
2023-03-11T23:10:20.803Z,2.78
2023-03-11T23:13:22.759Z,1.90
2023-03-11T23:16:24.598Z,1.83
2023-03-11T23:19:25.877Z,2.55
2023-03-11T23:22:27.128Z,2.90
2023-03-11T23:25:28.400Z,2.63
2023-03-11T23:28:30.150Z,1.80
2023-03-11T23:31:31.492Z,2.03
2023-03-11T23:34:32.780Z,2.08
2023-03-11T23:37:34.075Z,1.65
2023-03-11T23:40:35.367Z,2.92
2023-03-11T23:43:36.884Z,2.22
2023-03-11T23:46:38.183Z,3.38
2023-03-11T23:49:39.574Z,2.13
2023-03-11T23:52:41.018Z,2.85
2023-03-11T23:55:42.370Z,3.75
2023-03-11T23:58:44.214Z,2.80
